createdAt,value
2023-01-01T00:01:40.047Z,63.02
2023-01-01T00:04:11.784Z,63.21
2023-01-01T00:06:39.290Z,63.72
2023-01-01T00:09:25.578Z,63.97
2023-01-01T00:11:53.297Z,63.85
2023-01-01T00:14:20.776Z,64.46
2023-01-01T00:16:48.421Z,64.23
2023-01-01T00:19:16.114Z,63.75
2023-01-01T00:21:43.553Z,63.86
2023-01-01T00:24:11.065Z,63.54
2023-01-01T00:26:38.775Z,64.43
2023-01-01T00:29:06.228Z,64.31
2023-01-01T00:31:33.712Z,64.12
2023-01-01T00:34:01.874Z,64.42
2023-01-01T00:36:30.265Z,64.26
2023-01-01T00:38:57.780Z,63.91
2023-01-01T00:41:25.484Z,64.66
2023-01-01T00:43:52.943Z,64.15
2023-01-01T00:46:20.443Z,64.14
2023-01-01T00:48:48.146Z,63.84
2023-01-01T00:51:15.702Z,63.78
2023-01-01T00:53:43.157Z,63.94
2023-01-01T00:56:10.884Z,63.79
2023-01-01T00:58:38.244Z,64.06
2023-01-01T01:01:05.839Z,64.50
2023-01-01T01:03:33.719Z,64.51
2023-01-01T01:06:04.092Z,64.58
2023-01-01T01:08:33.634Z,64.80
2023-01-01T01:11:22.250Z,64.48
2023-01-01T01:13:51.704Z,64.42
2023-01-01T01:16:23.292Z,64.38
2023-01-01T01:18:52.013Z,63.71
2023-01-01T01:21:21.707Z,63.72
2023-01-01T01:23:50.705Z,63.68
2023-01-01T01:26:24.234Z,63.98
2023-01-01T01:28:52.874Z,63.87
2023-01-01T01:31:21.862Z,63.94
2023-01-01T01:33:49.742Z,64.52
2023-01-01T01:36:18.759Z,64.12
2023-01-01T01:38:46.655Z,63.69
2023-01-01T01:41:26.795Z,63.79
2023-01-01T01:44:04.337Z,64.10
2023-01-01T01:46:38.553Z,64.74
2023-01-01T01:49:15.339Z,64.71
2023-01-01T01:51:43.191Z,65.16
2023-01-01T01:54:13.188Z,64.65
2023-01-01T01:56:53.967Z,75.51
2023-01-01T01:59:26.601Z,68.87
2023-01-01T02:01:54.568Z,66.66
2023-01-01T02:04:22.967Z,64.10
2023-01-01T02:06:50.414Z,63.13
2023-01-01T02:09:18.475Z,63.49
2023-01-01T02:11:46.255Z,63.08
2023-01-01T02:14:13.985Z,63.38
2023-01-01T02:16:51.677Z,63.16
2023-01-01T02:19:25.333Z,62.95
2023-01-01T02:21:53.020Z,63.30
2023-01-01T02:24:39.221Z,64.10
2023-01-01T02:27:13.591Z,63.70
2023-01-01T02:30:02.952Z,63.69
2023-01-01T02:32:43.700Z,63.59
2023-01-01T02:35:37.602Z,63.33
2023-01-01T02:38:09.845Z,63.37
2023-01-01T02:40:39.969Z,63.56
2023-01-01T02:43:07.491Z,63.84
2023-01-01T02:45:35.045Z,63.72
2023-01-01T02:48:07.901Z,63.95
2023-01-01T02:50:35.802Z,64.34
2023-01-01T02:53:27.277Z,63.51
2023-01-01T02:56:04.302Z,63.64
2023-01-01T02:59:17.022Z,63.67
2023-01-01T03:01:48.968Z,63.85
2023-01-01T03:04:22.644Z,63.57
2023-01-01T03:07:12.665Z,63.72
2023-01-01T03:09:49.636Z,63.90
2023-01-01T03:12:25.401Z,63.17
2023-01-01T03:14:59.046Z,63.81
2023-01-01T03:17:32.818Z,64.55
2023-01-01T03:20:03.745Z,64.96
2023-01-01T03:22:33.494Z,64.72
2023-01-01T03:25:07.104Z,64.15
2023-01-01T03:27:46.430Z,63.63
2023-01-01T03:30:15.843Z,64.21
2023-01-01T03:33:07.743Z,63.52
2023-01-01T03:35:35.655Z,63.45
2023-01-01T03:38:04.942Z,63.65
2023-01-01T03:40:35.227Z,63.35
2023-01-01T03:43:07.901Z,63.28
2023-01-01T03:45:41.547Z,63.95
2023-01-01T03:48:10.804Z,63.47
2023-01-01T03:50:48.108Z,63.45
2023-01-01T03:53:25.172Z,62.98
2023-01-01T03:56:24.132Z,63.36
2023-01-01T03:58:56.779Z,63.21
2023-01-01T04:01:32.676Z,63.20
2023-01-01T04:04:01.435Z,63.01
2023-01-01T04:06:29.099Z,63.44
2023-01-01T04:08:58.465Z,63.66
2023-01-01T04:11:47.437Z,63.88
2023-01-01T04:14:39.131Z,63.86
2023-01-01T04:17:08.242Z,63.84
2023-01-01T04:19:35.628Z,64.06
2023-01-01T04:22:03.868Z,64.69
2023-01-01T04:24:31.585Z,64.77
2023-01-01T04:26:59.019Z,64.78
2023-01-01T04:29:26.427Z,64.31
2023-01-01T04:31:54.156Z,64.32
2023-01-01T04:34:21.585Z,64.26
2023-01-01T04:36:48.965Z,64.38
2023-01-01T04:39:17.001Z,64.77
2023-01-01T04:41:44.378Z,64.87
2023-01-01T04:44:11.807Z,64.80
2023-01-01T04:46:39.492Z,64.44
2023-01-01T04:49:06.944Z,64.23
2023-01-01T04:51:34.407Z,64.67
2023-01-01T04:54:02.301Z,65.13
2023-01-01T04:56:29.682Z,65.27
2023-01-01T04:58:58.600Z,65.27
2023-01-01T05:01:28.113Z,65.06
2023-01-01T05:03:56.909Z,64.78
2023-01-01T05:06:24.501Z,64.64
2023-01-01T05:08:54.809Z,64.35
2023-01-01T05:11:27.531Z,64.30
2023-01-01T05:13:58.681Z,64.03
2023-01-01T05:16:28.443Z,64.51
2023-01-01T05:18:57.798Z,64.51
2023-01-01T05:21:27.684Z,65.12
2023-01-01T05:23:56.472Z,65.48
2023-01-01T05:26:28.127Z,65.11
2023-01-01T05:28:56.504Z,65.10
2023-01-01T05:31:27.078Z,65.37
2023-01-01T05:33:55.104Z,65.75
2023-01-01T05:36:28.227Z,65.08
2023-01-01T05:38:56.323Z,65.88
2023-01-01T05:41:24.338Z,65.95
2023-01-01T05:43:52.586Z,65.10
2023-01-01T05:46:22.619Z,64.68
2023-01-01T05:48:50.808Z,65.39
2023-01-01T05:51:23.814Z,65.73
2023-01-01T05:53:53.439Z,65.31
2023-01-01T05:56:21.363Z,65.55
2023-01-01T05:58:48.939Z,65.42
2023-01-01T06:01:16.620Z,65.76
2023-01-01T06:03:44.954Z,65.94
2023-01-01T06:06:14.405Z,65.81
2023-01-01T06:08:42.302Z,65.31
2023-01-01T06:11:12.119Z,65.80
2023-01-01T06:13:39.527Z,66.09
2023-01-01T06:16:07.434Z,65.30
2023-01-01T06:18:35.607Z,64.60
2023-01-01T06:21:06.952Z,64.66
2023-01-01T06:23:34.931Z,64.59
2023-01-01T06:26:13.852Z,64.85
2023-01-01T06:28:41.920Z,64.58
2023-01-01T06:31:10.763Z,65.15
2023-01-01T06:33:38.985Z,64.63
2023-01-01T06:36:09.552Z,64.73
2023-01-01T06:38:39.605Z,64.76
2023-01-01T06:41:10.827Z,64.85
2023-01-01T06:43:38.641Z,63.98
2023-01-01T06:46:18.051Z,64.65
2023-01-01T06:48:47.290Z,64.68
2023-01-01T06:51:17.005Z,65.15
2023-01-01T06:53:44.409Z,65.17
2023-01-01T06:56:12.620Z,64.91
2023-01-01T06:58:40.230Z,65.22
2023-01-01T07:01:11.318Z,65.59
2023-01-01T07:03:39.881Z,65.90
2023-01-01T07:06:08.085Z,65.90
2023-01-01T07:08:36.164Z,65.33
2023-01-01T07:11:04.022Z,64.47
2023-01-01T07:13:31.652Z,64.96
2023-01-01T07:16:00.441Z,65.20
2023-01-01T07:18:28.464Z,64.73
2023-01-01T07:20:58.059Z,64.35
2023-01-01T07:23:26.765Z,63.83
2023-01-01T07:25:55.052Z,63.61
2023-01-01T07:28:23.695Z,64.24
2023-01-01T07:30:52.463Z,64.38
2023-01-01T07:33:22.540Z,64.10
2023-01-01T07:35:50.215Z,63.76
2023-01-01T07:38:17.581Z,64.10
2023-01-01T07:40:45.417Z,64.42
2023-01-01T07:43:13.766Z,64.79
2023-01-01T07:45:41.293Z,64.12
2023-01-01T07:48:13.920Z,63.53
2023-01-01T07:50:42.848Z,64.45
2023-01-01T07:53:10.494Z,64.61
2023-01-01T07:55:38.170Z,65.17
2023-01-01T07:58:05.549Z,65.29
2023-01-01T08:00:33.262Z,64.81
2023-01-01T08:03:01.108Z,64.45
2023-01-01T08:05:28.682Z,64.80
2023-01-01T08:07:56.231Z,65.24
2023-01-01T08:10:23.902Z,64.75
2023-01-01T08:12:51.280Z,65.00
2023-01-01T08:15:18.685Z,64.26
2023-01-01T08:17:47.362Z,63.90
2023-01-01T08:20:15.066Z,64.47
2023-01-01T08:22:42.426Z,65.09
2023-01-01T08:25:10.157Z,65.27
2023-01-01T08:27:38.193Z,65.25
2023-01-01T08:30:06.333Z,65.11
2023-01-01T08:32:33.866Z,65.01
2023-01-01T08:35:01.273Z,64.83
2023-01-01T08:37:28.752Z,64.66
2023-01-01T08:39:56.469Z,64.68
2023-01-01T08:42:23.909Z,64.94
2023-01-01T08:44:51.457Z,64.89
2023-01-01T08:47:21.750Z,64.64
2023-01-01T08:49:49.362Z,64.60
2023-01-01T08:52:17.368Z,64.25
2023-01-01T08:54:45.028Z,64.15
2023-01-01T08:57:12.485Z,63.90
2023-01-01T08:59:40.130Z,63.99
2023-01-01T09:02:08.051Z,64.32
2023-01-01T09:04:35.637Z,64.00
2023-01-01T09:07:03.055Z,64.14
2023-01-01T09:09:31.775Z,64.23
2023-01-01T09:12:04.265Z,64.73
2023-01-01T09:14:33.937Z,63.93
2023-01-01T09:17:01.732Z,64.21
2023-01-01T09:19:29.177Z,64.67
2023-01-01T09:21:56.863Z,64.47
2023-01-01T09:24:24.574Z,63.91
2023-01-01T09:26:52.308Z,64.24
2023-01-01T09:29:21.651Z,63.54
2023-01-01T09:31:49.322Z,64.13
2023-01-01T09:34:17.997Z,64.24
2023-01-01T09:36:46.508Z,63.93
2023-01-01T09:39:15.510Z,64.09
2023-01-01T09:41:55.585Z,63.97
2023-01-01T09:44:45.192Z,63.62
2023-01-01T09:47:21.493Z,63.84
2023-01-01T09:49:50.386Z,63.57
2023-01-01T09:52:19.816Z,63.25
2023-01-01T09:54:51.908Z,63.40
2023-01-01T09:57:20.358Z,63.57
2023-01-01T09:59:47.840Z,63.68
2023-01-01T10:03:00.215Z,63.57
2023-01-01T10:05:32.491Z,62.61
2023-01-01T10:08:22.836Z,62.94
2023-01-01T10:11:20.791Z,62.84
2023-01-01T10:13:48.322Z,63.03
2023-01-01T10:16:23.908Z,63.16
2023-01-01T10:18:55.178Z,63.14
2023-01-01T10:21:34.062Z,62.99
2023-01-01T10:24:05.959Z,62.90
2023-01-01T10:26:35.080Z,62.86
2023-01-01T10:29:15.412Z,62.79
2023-01-01T10:31:46.954Z,62.98
2023-01-01T10:34:19.798Z,62.87
2023-01-01T10:36:47.529Z,63.63
2023-01-01T10:39:16.328Z,63.10
2023-01-01T10:41:44.761Z,63.37
2023-01-01T10:44:13.576Z,63.55
2023-01-01T10:46:49.467Z,63.71
2023-01-01T10:49:17.170Z,63.54
2023-01-01T10:51:47.756Z,64.15
2023-01-01T10:54:29.605Z,63.79
2023-01-01T10:56:59.718Z,63.79
2023-01-01T10:59:35.336Z,64.28
2023-01-01T11:02:24.002Z,65.35
2023-01-01T11:04:52.764Z,64.71
2023-01-01T11:07:32.119Z,63.80
2023-01-01T11:10:04.298Z,64.42
2023-01-01T11:15:44.586Z,63.82
2023-01-01T11:18:15.407Z,63.55
2023-01-01T11:20:43.481Z,63.00
2023-01-01T11:23:53.431Z,62.48
2023-01-01T11:26:26.996Z,62.20
2023-01-01T11:29:22.534Z,62.18
2023-01-01T11:31:50.973Z,62.24
2023-01-01T11:34:37.101Z,61.57
2023-01-01T11:37:26.972Z,71.84
2023-01-01T11:39:56.577Z,65.68
2023-01-01T11:42:27.076Z,65.29
2023-01-01T11:45:00.924Z,64.75
2023-01-01T11:47:38.355Z,62.76
2023-01-01T11:50:36.714Z,62.09
2023-01-01T11:53:24.644Z,58.43
2023-01-01T11:56:10.221Z,57.22
2023-01-01T11:58:51.966Z,57.04
2023-01-01T12:01:19.515Z,56.81
2023-01-01T12:03:57.683Z,56.81
2023-01-01T12:06:32.203Z,57.23
2023-01-01T12:09:13.253Z,57.26
2023-01-01T12:11:49.849Z,57.53
2023-01-01T12:14:37.348Z,58.66
2023-01-01T12:17:26.759Z,58.31
2023-01-01T12:20:04.808Z,58.74
2023-01-01T12:22:32.498Z,58.26
2023-01-01T12:25:00.762Z,58.85
2023-01-01T12:27:52.709Z,58.67
2023-01-01T12:30:36.725Z,58.69
2023-01-01T12:33:19.585Z,59.78
2023-01-01T12:35:55.069Z,60.06
2023-01-01T12:38:42.613Z,60.18
2023-01-01T12:41:25.783Z,60.19
2023-01-01T12:44:05.373Z,60.17
2023-01-01T12:46:37.842Z,59.86
2023-01-01T12:49:30.492Z,61.11
2023-01-01T12:52:42.807Z,60.14
2023-01-01T12:55:28.383Z,61.01
2023-01-01T12:58:20.238Z,61.94
2023-01-01T13:00:56.109Z,61.23
2023-01-01T13:03:37.763Z,60.72
2023-01-01T13:06:06.362Z,60.39
2023-01-01T13:08:35.684Z,61.32
2023-01-01T13:11:06.249Z,60.50
2023-01-01T13:13:34.063Z,61.32
2023-01-01T13:16:01.543Z,61.06
2023-01-01T13:18:33.515Z,59.93
2023-01-01T13:21:07.608Z,59.77
2023-01-01T13:23:34.895Z,59.40
2023-01-01T13:26:17.746Z,60.27
2023-01-01T13:28:57.753Z,63.10
2023-01-01T13:32:06.392Z,60.86
2023-01-01T13:34:54.032Z,59.41
2023-01-01T13:37:24.603Z,59.35
2023-01-01T13:40:11.100Z,59.12
2023-01-01T13:43:00.746Z,59.49
2023-01-01T13:48:39.972Z,61.08
2023-01-01T13:51:28.019Z,59.57
2023-01-01T13:54:36.015Z,59.32
2023-01-01T13:57:15.171Z,59.11
2023-01-01T13:59:42.724Z,58.87
2023-01-01T14:02:20.488Z,59.10
2023-01-01T14:04:55.024Z,59.82
2023-01-01T14:07:51.161Z,58.91
2023-01-01T14:10:31.863Z,58.37
2023-01-01T14:13:11.103Z,58.53
2023-01-01T14:15:40.605Z,58.66
2023-01-01T14:18:16.883Z,58.79
2023-01-01T14:20:48.296Z,58.91
2023-01-01T14:23:28.311Z,59.03
2023-01-01T14:25:56.506Z,58.91
2023-01-01T14:28:29.606Z,58.93
2023-01-01T14:30:59.349Z,59.22
2023-01-01T14:33:32.435Z,59.30
2023-01-01T14:36:02.204Z,59.48
2023-01-01T14:38:35.125Z,60.20
2023-01-01T14:41:30.725Z,59.74
2023-01-01T14:44:04.949Z,59.32
2023-01-01T14:46:33.075Z,59.54
2023-01-01T14:49:03.975Z,59.76
2023-01-01T14:51:32.013Z,60.06
2023-01-01T14:54:01.878Z,60.13
2023-01-01T14:56:32.198Z,59.44
2023-01-01T14:59:24.226Z,59.67
2023-01-01T15:02:17.738Z,60.13
2023-01-01T15:04:45.659Z,60.24
2023-01-01T15:07:22.688Z,60.39
2023-01-01T15:09:51.957Z,60.02
2023-01-01T15:12:21.013Z,60.46
2023-01-01T15:14:50.605Z,60.55
2023-01-01T15:17:20.623Z,60.30
2023-01-01T15:20:00.967Z,60.69
2023-01-01T15:22:31.541Z,60.51
2023-01-01T15:25:00.112Z,61.04
2023-01-01T15:27:29.699Z,61.00
2023-01-01T15:29:57.853Z,61.22
2023-01-01T15:32:31.213Z,61.33
2023-01-01T15:35:07.272Z,61.21
2023-01-01T15:37:46.481Z,61.11
2023-01-01T15:40:14.209Z,60.92
2023-01-01T15:42:46.111Z,61.35
2023-01-01T15:45:19.616Z,61.28
2023-01-01T15:47:48.674Z,60.85
2023-01-01T15:50:25.108Z,61.00
2023-01-01T15:52:56.179Z,61.14
2023-01-01T15:55:26.261Z,64.01
2023-01-01T15:57:53.913Z,64.15
2023-01-01T16:00:23.693Z,61.61
2023-01-01T16:02:53.459Z,61.41
2023-01-01T16:05:23.662Z,60.68
2023-01-01T16:08:02.130Z,61.72
2023-01-01T16:10:29.766Z,61.71
2023-01-01T16:12:58.860Z,61.10
2023-01-01T16:15:27.353Z,61.95
2023-01-01T16:17:55.306Z,62.45
2023-01-01T16:20:23.268Z,61.87
2023-01-01T16:22:50.754Z,61.66
2023-01-01T16:25:20.240Z,62.67
2023-01-01T16:27:48.514Z,62.23
2023-01-01T16:30:16.032Z,62.14
2023-01-01T16:32:43.437Z,62.47
2023-01-01T16:35:14.226Z,62.29
2023-01-01T16:37:41.636Z,62.23
2023-01-01T16:40:09.764Z,62.39
2023-01-01T16:42:37.506Z,62.53
2023-01-01T16:45:05.744Z,62.04
2023-01-01T16:47:33.122Z,61.67
2023-01-01T16:50:01.106Z,62.31
2023-01-01T16:52:33.503Z,61.90
2023-01-01T16:55:01.663Z,62.15
2023-01-01T16:57:29.133Z,62.42
2023-01-01T16:59:56.633Z,62.03
2023-01-01T17:02:24.627Z,62.23
2023-01-01T17:04:52.142Z,61.84
2023-01-01T17:07:20.511Z,62.23
2023-01-01T17:09:48.217Z,62.13
2023-01-01T17:12:15.916Z,61.46
2023-01-01T17:14:43.429Z,61.98
2023-01-01T17:17:11.161Z,62.32
2023-01-01T17:19:38.585Z,62.79
2023-01-01T17:22:05.961Z,62.75
2023-01-01T17:24:33.661Z,62.72
2023-01-01T17:27:01.112Z,62.79
2023-01-01T17:29:28.522Z,62.63
2023-01-01T17:31:56.300Z,62.63
2023-01-01T17:34:23.678Z,62.66
2023-01-01T17:36:51.067Z,62.83
2023-01-01T17:39:18.772Z,62.31
2023-01-01T17:41:46.253Z,63.13
2023-01-01T17:44:13.800Z,63.04
2023-01-01T17:46:44.039Z,63.36
2023-01-01T17:49:11.660Z,63.23
2023-01-01T17:51:39.469Z,62.76
2023-01-01T17:54:10.348Z,62.76
2023-01-01T17:56:37.783Z,62.71
2023-01-01T17:59:05.366Z,62.61
2023-01-01T18:01:34.809Z,62.67
2023-01-01T18:04:05.295Z,62.80
2023-01-01T18:06:37.352Z,62.61
2023-01-01T18:09:12.332Z,62.95
2023-01-01T18:11:40.477Z,62.80
2023-01-01T18:14:07.954Z,62.75
2023-01-01T18:16:37.158Z,63.12
2023-01-01T18:19:05.323Z,64.73
2023-01-01T18:21:33.637Z,63.31
2023-01-01T18:24:01.654Z,63.01
2023-01-01T18:26:31.168Z,62.56
2023-01-01T18:29:02.237Z,62.49
2023-01-01T18:31:31.631Z,62.65
2023-01-01T18:34:00.368Z,62.74
2023-01-01T18:36:30.880Z,62.46
2023-01-01T18:39:23.196Z,62.54
2023-01-01T18:42:02.663Z,62.56
2023-01-01T18:44:31.768Z,62.54
2023-01-01T18:47:07.693Z,62.19
2023-01-01T18:49:38.652Z,62.55
2023-01-01T18:52:05.939Z,62.49
2023-01-01T18:54:34.104Z,62.93
2023-01-01T18:57:07.911Z,62.68
2023-01-01T18:59:37.419Z,63.09
2023-01-01T19:02:41.183Z,62.30
2023-01-01T19:05:15.060Z,62.57
2023-01-01T19:07:45.864Z,63.05
2023-01-01T19:10:13.719Z,62.22
2023-01-01T19:12:41.326Z,62.42
2023-01-01T19:15:18.029Z,63.02
2023-01-01T19:17:45.589Z,62.74
2023-01-01T19:20:19.409Z,62.55
2023-01-01T19:22:47.819Z,63.02
2023-01-01T19:25:36.006Z,63.08
2023-01-01T19:28:29.524Z,63.43
2023-01-01T19:30:57.607Z,63.07
2023-01-01T19:33:25.222Z,63.63
2023-01-01T19:35:52.719Z,63.40
2023-01-01T19:38:20.386Z,63.29
2023-01-01T19:40:47.938Z,63.33
2023-01-01T19:43:15.381Z,62.91
2023-01-01T19:45:43.227Z,62.88
2023-01-01T19:48:10.636Z,62.66
2023-01-01T19:50:38.023Z,62.61
2023-01-01T19:53:05.745Z,62.83
2023-01-01T19:55:33.490Z,63.53
2023-01-01T19:58:01.261Z,66.94
2023-01-01T20:00:29.029Z,67.14
2023-01-01T20:03:03.821Z,64.21
2023-01-01T20:05:44.230Z,62.86
2023-01-01T20:08:11.921Z,62.40
2023-01-01T20:10:39.314Z,62.04
2023-01-01T20:13:06.725Z,61.47
2023-01-01T20:15:34.465Z,61.85
2023-01-01T20:18:01.905Z,61.53
2023-01-01T20:20:29.340Z,61.60
2023-01-01T20:22:57.038Z,61.58
2023-01-01T20:25:24.450Z,61.70
2023-01-01T20:28:10.319Z,61.57
2023-01-01T20:30:38.279Z,61.37
2023-01-01T20:33:05.717Z,61.53
2023-01-01T20:35:51.698Z,61.72
2023-01-01T20:38:19.350Z,61.75
2023-01-01T20:40:46.745Z,61.94
2023-01-01T20:43:14.111Z,61.84
2023-01-01T20:45:42.734Z,61.97
2023-01-01T20:48:13.489Z,61.51
2023-01-01T20:50:45.642Z,61.65
2023-01-01T20:53:13.279Z,62.11
2023-01-01T20:55:40.847Z,62.07
2023-01-01T20:58:08.487Z,62.06
2023-01-01T21:00:35.856Z,61.89
2023-01-01T21:03:03.307Z,62.06
2023-01-01T21:05:31.078Z,61.88
2023-01-01T21:07:58.511Z,61.95
2023-01-01T21:10:25.973Z,61.61
2023-01-01T21:12:53.647Z,62.17
2023-01-01T21:15:21.034Z,61.70
2023-01-01T21:17:48.493Z,61.96
2023-01-01T21:20:16.225Z,62.07
2023-01-01T21:22:43.930Z,61.94
2023-01-01T21:25:49.729Z,61.97
2023-01-01T21:28:12.988Z,61.99
2023-01-01T21:30:52.202Z,61.96
2023-01-01T21:33:27.181Z,62.37
2023-01-01T21:35:54.766Z,62.13
2023-01-01T21:38:28.285Z,62.34
2023-01-01T21:40:59.363Z,62.28
2023-01-01T21:43:45.593Z,61.86
2023-01-01T21:46:18.371Z,61.86
2023-01-01T21:48:55.551Z,61.55
2023-01-01T21:51:25.893Z,62.20
2023-01-01T21:54:02.240Z,61.79
2023-01-01T21:56:38.433Z,62.03
2023-01-01T21:59:27.165Z,62.00
2023-01-01T22:02:04.336Z,62.06
2023-01-01T22:04:52.504Z,61.97
2023-01-01T22:10:17.332Z,61.92
2023-01-01T22:12:45.500Z,61.83
2023-01-01T22:15:25.116Z,62.12
2023-01-01T22:18:11.389Z,61.92
2023-01-01T22:20:45.333Z,61.96
2023-01-01T22:23:19.499Z,62.47
2023-01-01T22:25:47.677Z,62.72
2023-01-01T22:28:40.933Z,63.52
2023-01-01T22:31:13.811Z,63.65
2023-01-01T22:33:44.208Z,63.31
2023-01-01T22:36:22.440Z,63.20
2023-01-01T22:38:50.202Z,62.87
2023-01-01T22:41:17.727Z,63.44
2023-01-01T22:43:47.212Z,63.47
2023-01-01T22:46:32.263Z,63.37
2023-01-01T22:49:01.435Z,62.86
2023-01-01T22:51:40.632Z,63.21
2023-01-01T22:54:08.139Z,63.43
2023-01-01T22:56:35.807Z,63.28
2023-01-01T22:59:04.600Z,63.58
2023-01-01T23:01:32.341Z,63.20
2023-01-01T23:04:00.454Z,62.81
2023-01-01T23:06:28.076Z,63.27
2023-01-01T23:08:55.601Z,63.64
2023-01-01T23:11:23.469Z,63.95
2023-01-01T23:14:09.999Z,63.80
2023-01-01T23:16:37.706Z,63.34
2023-01-01T23:19:05.960Z,63.92
2023-01-01T23:21:34.751Z,64.34
2023-01-01T23:24:04.688Z,63.90
2023-01-01T23:26:32.335Z,64.09
2023-01-01T23:28:59.862Z,64.09
2023-01-01T23:31:27.907Z,63.81
2023-01-01T23:33:56.196Z,63.49
2023-01-01T23:36:27.219Z,63.47
2023-01-01T23:38:54.948Z,63.97
2023-01-01T23:41:23.111Z,63.62
2023-01-01T23:43:50.838Z,63.11
2023-01-01T23:46:19.014Z,63.74
2023-01-01T23:48:47.334Z,63.80
2023-01-01T23:51:16.100Z,64.17
2023-01-01T23:53:43.850Z,64.26
2023-01-01T23:56:11.335Z,64.71
2023-01-01T23:58:38.753Z,64.83
